createdAt,value
2019-05-07T00:02:04.666Z,73.02
2019-05-07T00:04:35.897Z,73.64
2019-05-07T00:07:07.081Z,73.77
2019-05-07T00:09:38.957Z,73.99
2019-05-07T00:12:12.569Z,74.68
2019-05-07T00:14:58.109Z,75.30
2019-05-07T00:17:18.052Z,75.14
2019-05-07T00:19:49.301Z,76.90
2019-05-07T00:22:22.696Z,77.33
2019-05-07T00:24:54.895Z,76.96
2019-05-07T00:27:26.816Z,78.46
2019-05-07T00:29:58.721Z,79.74
2019-05-07T00:32:32.719Z,80.28
2019-05-07T00:35:06.084Z,79.64
2019-05-07T00:37:45.902Z,80.00
2019-05-07T00:40:37.136Z,78.47
2019-05-07T00:43:16.657Z,77.95
2019-05-07T00:46:10.389Z,78.36
2019-05-07T00:48:43.949Z,78.78
2019-05-07T00:51:28.594Z,80.23
2019-05-07T00:54:02.826Z,80.53
2019-05-07T00:56:34.902Z,80.45
2019-05-07T00:59:06.181Z,81.09
2019-05-07T01:01:37.360Z,81.69
2019-05-07T01:04:09.112Z,82.18
2019-05-07T01:06:42.413Z,82.66
2019-05-07T01:09:13.909Z,83.46
2019-05-07T01:11:45.695Z,83.40
2019-05-07T01:14:17.015Z,84.12
2019-05-07T01:16:48.779Z,84.10
2019-05-07T01:19:21.926Z,84.01
2019-05-07T01:21:55.180Z,83.31
2019-05-07T01:24:27.016Z,84.03
2019-05-07T01:26:58.832Z,84.04
2019-05-07T01:29:32.839Z,85.28
2019-05-07T01:32:15.160Z,83.96
2019-05-07T01:34:55.312Z,86.42
2019-05-07T01:37:27.260Z,86.62
2019-05-07T01:39:58.380Z,86.63
2019-05-07T01:42:36.405Z,86.67
2019-05-07T01:45:08.060Z,86.67
2019-05-07T01:47:42.321Z,86.38
2019-05-07T01:50:13.748Z,86.38
2019-05-07T01:52:45.684Z,85.92
2019-05-07T01:55:17.507Z,85.96
2019-05-07T01:57:49.393Z,85.72
2019-05-07T02:00:22.395Z,85.61
2019-05-07T02:03:00.025Z,85.43
2019-05-07T02:05:47.458Z,85.44
2019-05-07T02:08:38.581Z,85.36
2019-05-07T02:11:12.862Z,85.19
2019-05-07T02:13:44.104Z,85.09
2019-05-07T02:16:15.837Z,85.17
2019-05-07T02:18:47.689Z,85.10
2019-05-07T02:21:19.577Z,85.11
2019-05-07T02:23:52.341Z,85.10
2019-05-07T02:26:24.389Z,85.26
2019-05-07T02:28:55.608Z,85.23
2019-05-07T02:31:27.381Z,84.96
2019-05-07T02:33:59.241Z,85.03
2019-05-07T02:36:34.033Z,84.95
2019-05-07T02:39:28.440Z,84.90
2019-05-07T02:42:03.440Z,84.66
2019-05-07T02:44:49.413Z,84.52
2019-05-07T02:47:23.649Z,84.05
2019-05-07T02:50:03.343Z,83.91
2019-05-07T02:53:13.790Z,83.81
2019-05-07T02:55:49.425Z,83.51
2019-05-07T02:58:24.042Z,83.55
2019-05-07T03:00:55.179Z,83.53
2019-05-07T03:03:27.075Z,83.43
2019-05-07T03:05:59.027Z,83.21
2019-05-07T03:08:33.081Z,82.82
2019-05-07T03:11:03.845Z,82.63
2019-05-07T03:13:37.862Z,82.35
2019-05-07T03:16:09.130Z,82.44
2019-05-07T03:18:43.547Z,82.71
2019-05-07T03:21:18.526Z,82.55
2019-05-07T03:24:14.912Z,82.62
2019-05-07T03:26:47.238Z,82.48
2019-05-07T03:29:24.021Z,81.55
2019-05-07T03:32:19.370Z,80.87
2019-05-07T03:35:28.583Z,80.91
2019-05-07T03:38:03.091Z,81.30
2019-05-07T03:40:35.067Z,80.76
2019-05-07T03:43:06.995Z,80.82
2019-05-07T03:45:47.606Z,81.03
2019-05-07T03:48:23.763Z,81.32
2019-05-07T03:50:54.796Z,81.72
2019-05-07T03:53:26.690Z,82.03
2019-05-07T03:55:58.901Z,81.89
2019-05-07T03:58:30.217Z,81.10
2019-05-07T04:01:04.353Z,80.96
2019-05-07T04:03:34.899Z,81.23
2019-05-07T04:06:07.045Z,81.15
2019-05-07T04:08:39.075Z,80.97
2019-05-07T04:11:13.411Z,80.77
2019-05-07T04:13:46.101Z,80.55
2019-05-07T04:16:18.420Z,80.57
2019-05-07T04:18:52.788Z,80.12
2019-05-07T04:21:23.580Z,79.91
2019-05-07T04:24:13.740Z,79.52
2019-05-07T04:26:53.539Z,79.42
2019-05-07T04:29:23.901Z,79.22
2019-05-07T04:31:55.700Z,78.75
2019-05-07T04:34:53.921Z,78.58
2019-05-07T04:37:25.985Z,78.50
2019-05-07T04:40:02.901Z,78.08
2019-05-07T04:42:36.327Z,76.84
2019-05-07T04:45:08.799Z,76.03
2019-05-07T04:47:47.030Z,75.76
2019-05-07T04:50:34.650Z,75.35
2019-05-07T04:52:54.037Z,75.30
2019-05-07T04:55:25.462Z,75.11
2019-05-07T04:57:57.372Z,74.88
2019-05-07T05:00:29.274Z,74.77
2019-05-07T05:03:14.124Z,74.52
2019-05-07T05:05:47.681Z,74.02
2019-05-07T05:08:19.676Z,73.59
2019-05-07T05:10:53.759Z,73.34
2019-05-07T05:13:25.823Z,72.47
2019-05-07T05:15:57.807Z,72.03
2019-05-07T05:18:29.148Z,71.46
2019-05-07T05:21:09.175Z,71.35
2019-05-07T05:23:47.175Z,70.66
2019-05-07T05:26:19.135Z,70.25
2019-05-07T05:28:52.520Z,70.41
2019-05-07T05:31:24.690Z,70.17
2019-05-07T05:33:56.573Z,69.77
2019-05-07T05:36:28.447Z,69.62
2019-05-07T05:39:02.341Z,68.36
2019-05-07T05:41:37.656Z,67.78
2019-05-07T05:44:16.330Z,67.99
2019-05-07T05:46:48.219Z,67.61
2019-05-07T05:49:20.103Z,67.21
2019-05-07T05:52:09.715Z,67.76
2019-05-07T05:54:55.443Z,68.26
2019-05-07T05:57:34.094Z,67.87
2019-05-07T06:00:26.006Z,67.58
2019-05-07T06:03:11.935Z,67.20
2019-05-07T06:06:08.867Z,66.11
2019-05-07T06:09:12.338Z,65.34
2019-05-07T06:12:02.873Z,65.07
2019-05-07T06:14:53.951Z,64.35
2019-05-07T06:17:44.472Z,63.28
2019-05-07T06:20:34.350Z,63.71
2019-05-07T06:23:26.017Z,64.32
2019-05-07T06:25:57.914Z,64.51
2019-05-07T06:28:30.007Z,65.30
2019-05-07T06:31:02.263Z,66.14
2019-05-07T06:33:34.191Z,66.93
2019-05-07T06:36:07.022Z,67.57
2019-05-07T06:38:44.679Z,67.69
2019-05-07T06:41:44.446Z,67.93
2019-05-07T06:44:22.252Z,68.92
2019-05-07T06:46:54.833Z,69.17
2019-05-07T06:49:28.028Z,69.30
2019-05-07T06:52:00.016Z,69.30
2019-05-07T06:54:32.289Z,69.44
2019-05-07T06:57:08.162Z,69.58
2019-05-07T06:59:49.454Z,69.89
2019-05-07T07:02:42.603Z,70.21
2019-05-07T07:05:36.081Z,69.69
2019-05-07T07:08:17.162Z,69.39
2019-05-07T07:11:07.722Z,69.55
2019-05-07T07:13:39.859Z,69.82
2019-05-07T07:16:14.058Z,69.45
2019-05-07T07:18:52.268Z,68.45
2019-05-07T07:21:23.105Z,69.05
2019-05-07T07:23:56.454Z,68.96
2019-05-07T07:26:28.840Z,68.39
2019-05-07T07:29:02.045Z,67.41
2019-05-07T07:31:49.562Z,66.43
2019-05-07T07:34:22.856Z,65.13
2019-05-07T07:37:06.055Z,64.95
2019-05-07T07:39:36.414Z,65.03
2019-05-07T07:42:08.771Z,65.58
2019-05-07T07:44:42.573Z,65.88
2019-05-07T07:47:14.987Z,65.96
2019-05-07T07:49:47.303Z,66.35
2019-05-07T07:52:22.981Z,65.95
2019-05-07T07:54:55.155Z,66.04
2019-05-07T07:58:04.150Z,65.93
2019-05-07T08:00:43.932Z,65.81
2019-05-07T08:03:16.632Z,64.83
2019-05-07T08:05:49.051Z,64.47
2019-05-07T08:08:24.190Z,64.55
2019-05-07T08:10:55.656Z,63.90
2019-05-07T08:13:29.163Z,63.21
2019-05-07T08:16:02.440Z,62.29
2019-05-07T08:18:35.094Z,62.00
2019-05-07T08:21:08.031Z,62.13
2019-05-07T08:23:42.414Z,61.73
2019-05-07T08:26:17.672Z,61.51
2019-05-07T08:28:52.284Z,61.10
2019-05-07T08:31:44.643Z,60.64
2019-05-07T08:34:23.705Z,59.58
2019-05-07T08:36:56.026Z,58.50
2019-05-07T08:39:28.280Z,58.25
2019-05-07T08:42:02.209Z,58.81
2019-05-07T08:44:44.421Z,59.00
2019-05-07T08:47:35.387Z,56.77
2019-05-07T08:50:08.111Z,55.63
2019-05-07T08:52:41.953Z,55.30
2019-05-07T08:55:14.622Z,54.30
2019-05-07T08:57:46.887Z,53.52
2019-05-07T09:00:22.316Z,54.33
2019-05-07T09:02:54.572Z,54.45
2019-05-07T09:05:26.801Z,53.40
2019-05-07T09:07:59.026Z,53.92
2019-05-07T09:10:32.621Z,55.06
2019-05-07T09:13:04.829Z,55.24
2019-05-07T09:15:37.053Z,56.10
2019-05-07T09:18:12.389Z,55.74
2019-05-07T09:20:55.839Z,56.65
2019-05-07T09:23:27.764Z,57.21
2019-05-07T09:25:59.712Z,58.14
2019-05-07T09:28:52.282Z,59.38
2019-05-07T09:31:34.416Z,61.07
2019-05-07T09:34:06.244Z,61.91
2019-05-07T09:36:45.940Z,62.20
2019-05-07T09:39:17.802Z,62.64
2019-05-07T09:41:52.502Z,63.65
2019-05-07T09:44:23.825Z,64.38
2019-05-07T09:46:57.814Z,64.10
2019-05-07T09:49:29.041Z,64.39
2019-05-07T09:52:02.612Z,63.79
2019-05-07T09:54:34.767Z,63.00
2019-05-07T09:57:06.726Z,62.78
2019-05-07T09:59:38.688Z,62.77
2019-05-07T10:02:12.307Z,62.41
2019-05-07T10:04:44.524Z,61.92
2019-05-07T10:07:16.526Z,60.57
2019-05-07T10:09:48.548Z,58.56
2019-05-07T10:12:35.031Z,56.88
2019-05-07T10:15:07.532Z,56.22
2019-05-07T10:17:53.746Z,53.86
2019-05-07T10:20:29.537Z,51.33
2019-05-07T10:23:02.394Z,48.68
2019-05-07T10:25:43.020Z,48.98
2019-05-07T10:28:15.538Z,49.39
2019-05-07T10:30:48.478Z,49.94
2019-05-07T10:33:22.700Z,53.69
2019-05-07T10:35:54.234Z,57.53
2019-05-07T10:38:26.298Z,59.04
2019-05-07T10:40:58.457Z,58.71
2019-05-07T10:43:32.832Z,59.19
2019-05-07T10:46:25.238Z,59.35
2019-05-07T10:49:02.902Z,59.49
2019-05-07T10:51:34.992Z,59.41
2019-05-07T10:54:07.216Z,58.94
2019-05-07T10:56:39.302Z,58.93
2019-05-07T10:59:12.190Z,58.13
2019-05-07T11:01:52.209Z,56.56
2019-05-07T11:04:24.068Z,56.23
2019-05-07T11:06:56.095Z,55.42
2019-05-07T11:09:27.432Z,51.71
2019-05-07T11:11:59.443Z,49.77
2019-05-07T11:14:32.169Z,50.54
2019-05-07T11:17:28.900Z,52.09
2019-05-07T11:20:01.086Z,50.43
2019-05-07T11:22:34.688Z,50.28
2019-05-07T11:25:07.111Z,49.51
2019-05-07T11:27:39.187Z,45.43
2019-05-07T11:30:13.915Z,42.94
2019-05-07T11:32:46.835Z,47.00
2019-05-07T11:35:18.763Z,45.69
2019-05-07T11:37:52.057Z,43.09
2019-05-07T11:40:24.700Z,40.96
2019-05-07T11:43:06.284Z,39.48
2019-05-07T11:45:54.082Z,40.04
2019-05-07T11:48:25.304Z,39.66
2019-05-07T11:51:19.779Z,40.06
2019-05-07T11:54:28.593Z,39.67
2019-05-07T11:57:02.517Z,41.29
2019-05-07T11:59:35.275Z,40.86
2019-05-07T12:02:07.299Z,39.14
2019-05-07T12:04:39.179Z,38.90
2019-05-07T12:07:11.891Z,39.14
2019-05-07T12:09:43.964Z,38.24
2019-05-07T12:12:16.065Z,38.41
2019-05-07T12:14:48.084Z,38.94
2019-05-07T12:17:22.389Z,38.64
2019-05-07T12:19:54.364Z,37.27
2019-05-07T12:22:43.779Z,36.19
2019-05-07T12:25:16.415Z,35.53
2019-05-07T12:27:51.962Z,35.48
2019-05-07T12:30:51.615Z,34.29
2019-05-07T12:33:42.797Z,34.37
2019-05-07T12:36:15.962Z,34.28
2019-05-07T12:38:48.987Z,33.21
2019-05-07T12:41:30.159Z,32.88
2019-05-07T12:44:05.724Z,32.91
2019-05-07T12:46:37.445Z,33.08
2019-05-07T12:49:11.780Z,32.72
2019-05-07T12:51:52.431Z,31.67
2019-05-07T12:54:32.761Z,32.79
2019-05-07T12:57:04.571Z,31.94
2019-05-07T12:59:35.847Z,31.97
2019-05-07T13:02:42.079Z,31.74
2019-05-07T13:05:13.065Z,31.93
2019-05-07T13:07:55.362Z,32.73
2019-05-07T13:10:28.872Z,32.10
2019-05-07T13:13:02.191Z,33.42
2019-05-07T13:15:33.509Z,33.90
2019-05-07T13:18:05.406Z,33.70
2019-05-07T13:20:37.653Z,33.05
2019-05-07T13:23:11.836Z,32.40
2019-05-07T13:25:43.194Z,32.14
2019-05-07T13:28:15.204Z,32.56
2019-05-07T13:30:47.119Z,31.46
2019-05-07T13:33:19.466Z,30.84
2019-05-07T13:35:52.218Z,31.81
2019-05-07T13:38:49.365Z,32.19
2019-05-07T13:41:53.636Z,30.90
2019-05-07T13:44:41.880Z,30.38
2019-05-07T13:47:45.634Z,31.50
2019-05-07T13:50:17.670Z,32.34
2019-05-07T13:52:49.655Z,32.32
2019-05-07T13:55:21.946Z,34.10
2019-05-07T13:57:53.948Z,34.03
2019-05-07T14:00:32.427Z,34.76
2019-05-07T14:03:04.742Z,33.50
2019-05-07T14:05:36.696Z,35.51
2019-05-07T14:08:07.984Z,36.06
2019-05-07T14:10:40.206Z,35.99
2019-05-07T14:13:17.188Z,36.65
2019-05-07T14:16:04.757Z,38.21
2019-05-07T14:18:39.082Z,37.65
2019-05-07T14:21:13.042Z,35.40
2019-05-07T14:23:45.154Z,34.91
2019-05-07T14:26:17.110Z,34.27
2019-05-07T14:28:49.122Z,34.11
2019-05-07T14:31:21.102Z,32.39
2019-05-07T14:33:59.132Z,32.18
2019-05-07T14:36:36.334Z,32.18
2019-05-07T14:39:09.366Z,32.55
2019-05-07T14:41:42.751Z,31.32
2019-05-07T14:44:18.006Z,30.13
2019-05-07T14:46:51.587Z,30.79
2019-05-07T14:49:22.868Z,29.78
2019-05-07T14:51:54.658Z,29.42
2019-05-07T14:54:25.928Z,29.89
2019-05-07T14:56:57.750Z,29.54
2019-05-07T14:59:29.869Z,30.55
2019-05-07T15:02:02.841Z,30.46
2019-05-07T15:04:35.006Z,29.05
2019-05-07T15:07:07.026Z,30.13
2019-05-07T15:09:38.579Z,30.65
2019-05-07T15:12:13.988Z,30.30
2019-05-07T15:14:44.483Z,29.83
2019-05-07T15:17:24.692Z,37.25
2019-05-07T15:19:56.670Z,30.84
2019-05-07T15:22:52.468Z,31.62
2019-05-07T15:25:23.512Z,34.52
2019-05-07T15:27:55.638Z,31.67
2019-05-07T15:30:35.395Z,32.72
2019-05-07T15:33:06.900Z,31.71
2019-05-07T15:35:38.399Z,33.55
2019-05-07T15:38:11.634Z,32.34
2019-05-07T15:40:43.776Z,30.95
2019-05-07T15:43:15.749Z,31.18
2019-05-07T15:45:52.316Z,31.46
2019-05-07T15:48:23.086Z,30.57
2019-05-07T15:50:54.972Z,31.21
2019-05-07T15:53:42.606Z,31.42
2019-05-07T15:56:14.159Z,32.03
2019-05-07T15:58:45.432Z,32.36
2019-05-07T16:01:16.634Z,32.27
2019-05-07T16:03:48.590Z,33.43
2019-05-07T16:06:22.000Z,34.68
2019-05-07T16:08:57.918Z,33.31
2019-05-07T16:11:29.146Z,32.86
2019-05-07T16:14:26.801Z,32.63
2019-05-07T16:17:06.434Z,33.63
2019-05-07T16:19:37.663Z,33.36
2019-05-07T16:22:12.898Z,33.98
2019-05-07T16:24:44.301Z,34.21
2019-05-07T16:27:15.539Z,34.13
2019-05-07T16:29:49.153Z,32.47
2019-05-07T16:32:23.865Z,33.10
2019-05-07T16:34:54.099Z,34.74
2019-05-07T16:37:26.041Z,35.45
2019-05-07T16:39:57.648Z,35.40
2019-05-07T16:42:28.995Z,35.93
2019-05-07T16:45:03.113Z,36.67
2019-05-07T16:47:35.202Z,36.97
2019-05-07T16:50:07.707Z,36.84
2019-05-07T16:52:38.929Z,37.20
2019-05-07T16:55:12.107Z,37.11
2019-05-07T16:58:02.770Z,37.10
2019-05-07T17:00:39.638Z,37.27
2019-05-07T17:03:14.204Z,37.34
2019-05-07T17:05:46.305Z,37.45
2019-05-07T17:08:34.916Z,37.80
2019-05-07T17:11:06.849Z,38.46
2019-05-07T17:13:39.032Z,39.27
2019-05-07T17:16:12.385Z,39.11
2019-05-07T17:18:44.393Z,39.04
2019-05-07T17:21:15.611Z,39.36
2019-05-07T17:23:47.862Z,39.74
2019-05-07T17:26:19.153Z,39.65
2019-05-07T17:28:52.109Z,39.63
2019-05-07T17:31:24.725Z,39.46
2019-05-07T17:33:56.760Z,39.27
2019-05-07T17:36:28.593Z,39.55
2019-05-07T17:39:02.752Z,39.80
2019-05-07T17:41:35.465Z,40.12
2019-05-07T17:44:06.597Z,41.04
2019-05-07T17:46:39.241Z,41.69
2019-05-07T17:49:11.969Z,42.89
2019-05-07T17:51:46.305Z,43.78
2019-05-07T17:54:18.135Z,44.40
2019-05-07T17:56:49.804Z,44.78
2019-05-07T17:59:22.910Z,45.31
2019-05-07T18:02:29.640Z,45.44
2019-05-07T18:05:03.522Z,45.44
2019-05-07T18:07:37.465Z,45.81
2019-05-07T18:10:12.564Z,45.95
2019-05-07T18:12:43.913Z,46.12
2019-05-07T18:15:16.436Z,46.46
2019-05-07T18:18:03.108Z,46.26
2019-05-07T18:20:35.563Z,46.20
2019-05-07T18:23:10.735Z,46.70
2019-05-07T18:25:42.912Z,46.98
2019-05-07T18:28:16.088Z,47.42
2019-05-07T18:30:47.699Z,47.53
2019-05-07T18:33:28.316Z,48.62
2019-05-07T18:35:59.984Z,48.78
2019-05-07T18:38:32.941Z,48.83
2019-05-07T18:41:04.467Z,48.87
2019-05-07T18:43:37.426Z,48.78
2019-05-07T18:46:09.279Z,49.55
2019-05-07T18:48:42.690Z,49.37
2019-05-07T18:51:15.305Z,49.78
2019-05-07T18:53:47.362Z,49.46
2019-05-07T18:56:21.895Z,50.16
2019-05-07T18:58:53.684Z,49.68
2019-05-07T19:01:28.259Z,50.15
2019-05-07T19:04:02.058Z,50.21
2019-05-07T19:06:33.851Z,50.99
2019-05-07T19:09:06.870Z,51.40
2019-05-07T19:11:42.551Z,51.33
2019-05-07T19:14:14.272Z,51.14
2019-05-07T19:16:46.236Z,51.23
2019-05-07T19:19:18.065Z,51.99
2019-05-07T19:21:49.439Z,52.88
2019-05-07T19:24:23.112Z,53.23
2019-05-07T19:26:56.051Z,55.76
2019-05-07T19:29:28.697Z,55.97
2019-05-07T19:32:03.142Z,56.13
2019-05-07T19:34:34.958Z,56.43
2019-05-07T19:37:07.397Z,56.77
2019-05-07T19:39:39.612Z,56.40
2019-05-07T19:42:12.103Z,56.37
2019-05-07T19:44:43.736Z,56.66
2019-05-07T19:47:15.099Z,58.19
2019-05-07T19:49:46.385Z,58.28
2019-05-07T19:52:18.675Z,58.16
2019-05-07T19:54:58.820Z,58.43
2019-05-07T19:57:28.890Z,60.39
2019-05-07T20:00:00.413Z,60.67
2019-05-07T20:02:38.594Z,60.47
2019-05-07T20:05:12.108Z,60.55
2019-05-07T20:07:45.589Z,60.70
2019-05-07T20:10:21.989Z,60.73
2019-05-07T20:12:53.928Z,61.19
2019-05-07T20:15:25.905Z,63.21
2019-05-07T20:17:58.092Z,62.84
2019-05-07T20:20:29.858Z,62.96
2019-05-07T20:23:03.050Z,62.84
2019-05-07T20:25:34.467Z,63.59
2019-05-07T20:28:05.982Z,61.96
2019-05-07T20:30:38.326Z,62.29
2019-05-07T20:33:10.515Z,62.67
2019-05-07T20:35:43.753Z,62.51
2019-05-07T20:38:15.239Z,62.60
2019-05-07T20:40:46.672Z,63.51
2019-05-07T20:43:18.627Z,64.72
2019-05-07T20:45:51.844Z,65.02
2019-05-07T20:48:23.269Z,64.02
2019-05-07T20:50:55.167Z,64.29
2019-05-07T20:53:44.639Z,64.53
2019-05-07T20:56:17.148Z,64.46
2019-05-07T20:58:49.099Z,64.32
2019-05-07T21:01:22.019Z,64.30
2019-05-07T21:03:54.007Z,64.08
2019-05-07T21:06:25.903Z,64.13
2019-05-07T21:08:57.783Z,64.44
2019-05-07T21:11:29.033Z,66.20
2019-05-07T21:14:03.076Z,65.49
2019-05-07T21:16:35.938Z,65.09
2019-05-07T21:19:07.215Z,65.32
2019-05-07T21:21:38.281Z,66.70
2019-05-07T21:24:10.182Z,67.18
2019-05-07T21:26:42.468Z,67.54
2019-05-07T21:29:14.566Z,68.90
2019-05-07T21:31:46.388Z,67.97
2019-05-07T21:34:18.287Z,67.74
2019-05-07T21:36:52.301Z,67.42
2019-05-07T21:39:23.913Z,67.67
2019-05-07T21:41:55.722Z,68.65
2019-05-07T21:44:26.925Z,68.22
2019-05-07T21:46:58.081Z,68.61
2019-05-07T21:49:32.156Z,68.76
2019-05-07T21:52:03.459Z,68.54
2019-05-07T21:54:57.188Z,68.79
2019-05-07T21:57:52.384Z,68.82
2019-05-07T22:00:42.323Z,69.13
2019-05-07T22:03:17.407Z,69.14
2019-05-07T22:05:49.278Z,69.79
2019-05-07T22:08:21.876Z,70.07
2019-05-07T22:10:53.279Z,69.60
2019-05-07T22:13:28.094Z,69.76
2019-05-07T22:15:58.093Z,69.96
2019-05-07T22:18:32.035Z,70.49
2019-05-07T22:21:04.601Z,72.10
2019-05-07T22:23:35.763Z,71.56
2019-05-07T22:26:20.379Z,72.53
2019-05-07T22:28:42.274Z,73.75
2019-05-07T22:31:33.027Z,72.27
2019-05-07T22:34:32.579Z,72.14
2019-05-07T22:37:29.754Z,72.88
2019-05-07T22:39:58.646Z,72.74
2019-05-07T22:42:32.687Z,72.42
2019-05-07T22:45:04.975Z,74.44
2019-05-07T22:47:38.420Z,72.81
2019-05-07T22:50:11.996Z,72.89
2019-05-07T22:52:45.058Z,74.05
2019-05-07T22:55:16.278Z,73.80
2019-05-07T22:58:15.942Z,73.31
2019-05-07T23:00:52.619Z,74.86
2019-05-07T23:03:24.434Z,76.04
2019-05-07T23:05:57.323Z,77.21
2019-05-07T23:08:29.081Z,79.36
2019-05-07T23:11:02.835Z,79.86
2019-05-07T23:13:35.016Z,79.33
2019-05-07T23:16:07.990Z,78.81
2019-05-07T23:18:39.825Z,78.50
2019-05-07T23:21:11.709Z,78.32
2019-05-07T23:23:43.611Z,78.80
2019-05-07T23:26:15.538Z,78.01
2019-05-07T23:28:47.421Z,77.97
2019-05-07T23:31:19.252Z,78.77
2019-05-07T23:33:52.275Z,79.21
2019-05-07T23:36:23.816Z,78.10
2019-05-07T23:38:55.590Z,78.52
2019-05-07T23:41:41.933Z,78.84
2019-05-07T23:44:17.681Z,79.16
2019-05-07T23:46:51.847Z,79.52
2019-05-07T23:49:23.241Z,79.40
2019-05-07T23:51:55.205Z,79.19
2019-05-07T23:54:27.019Z,78.95
2019-05-07T23:57:05.930Z,79.34
2019-05-07T23:59:32.984Z,80.33
